Terminal Aerodrome Forecast
Issued by NWS Twin Cities, MN

Home | Current Version | Previous Version | Text Only | Print | Product List | Glossary Off
Versions: 1 2 3 4 5 6 7 8 9 10 11 12 13 14 15 16 17

124
FTUS43 KMPX 221120
TAFSTC
TAF
KSTC 221120Z 2212/2312 09004KT P6SM FEW250
     FM221800 16012G18KT P6SM SCT110 BKN200
     FM230100 15009KT P6SM SCT050 BKN080=

USA.gov is the U.S. government's official web portal to all federal, state and local government web resources and services.